sensor_id;sensor_type;location;lat;lon;timestamp;pressure;altitude;pressure_sealevel;temperature;humidity
77381;BME280;66439;50.106;10.996;2023-09-12T00:02:01;98408.80;;;19.72;59.92
77381;BME280;66439;50.106;10.996;2023-09-12T00:04:04;98407.27;;;19.69;60.01
77381;BME280;66439;50.106;10.996;2023-09-12T00:06:07;98406.28;;;19.68;60.01
77381;BME280;66439;50.106;10.996;2023-09-12T00:08:10;98413.17;;;19.66;59.98
77381;BME280;66439;50.106;10.996;2023-09-12T00:10:12;98413.05;;;19.65;60.09
77381;BME280;66439;50.106;10.996;2023-09-12T00:12:16;98414.05;;;19.63;60.16
77381;BME280;66439;50.106;10.996;2023-09-12T00:14:19;98413.27;;;19.63;60.23
77381;BME280;66439;50.106;10.996;2023-09-12T00:16:22;98417.40;;;19.61;60.16
77381;BME280;66439;50.106;10.996;2023-09-12T00:18:25;98414.50;;;19.59;60.45
77381;BME280;66439;50.106;10.996;2023-09-12T00:20:28;98413.35;;;19.59;60.41
77381;BME280;66439;50.106;10.996;2023-09-12T00:22:31;98405.08;;;19.58;60.55
77381;BME280;66439;50.106;10.996;2023-09-12T00:24:34;98403.58;;;19.58;60.49
77381;BME280;66439;50.106;10.996;2023-09-12T00:26:38;98400.17;;;19.57;60.25
77381;BME280;66439;50.106;10.996;2023-09-12T00:28:44;98395.67;;;19.56;60.37
77381;BME280;66439;50.106;10.996;2023-09-12T00:30:48;98395.98;;;19.54;60.20
77381;BME280;66439;50.106;10.996;2023-09-12T00:32:50;98393.70;;;19.53;60.17
77381;BME280;66439;50.106;10.996;2023-09-12T00:34:54;98391.97;;;19.49;60.07
77381;BME280;66439;50.106;10.996;2023-09-12T00:36:57;98393.73;;;19.43;60.13
77381;BME280;66439;50.106;10.996;2023-09-12T00:39:00;98390.92;;;19.35;60.21
77381;BME280;66439;50.106;10.996;2023-09-12T00:41:03;98390.27;;;19.27;60.59
77381;BME280;66439;50.106;10.996;2023-09-12T00:43:06;98389.84;;;19.21;60.85
77381;BME280;66439;50.106;10.996;2023-09-12T00:45:12;98390.33;;;19.14;61.09
77381;BME280;66439;50.106;10.996;2023-09-12T00:47:16;98392.27;;;19.09;61.20
77381;BME280;66439;50.106;10.996;2023-09-12T00:49:20;98387.61;;;19.06;61.37
77381;BME280;66439;50.106;10.996;2023-09-12T00:51:26;98392.18;;;19.05;61.40
77381;BME280;66439;50.106;10.996;2023-09-12T00:53:29;98384.59;;;19.06;61.42
77381;BME280;66439;50.106;10.996;2023-09-12T00:55:33;98384.11;;;19.06;61.28
77381;BME280;66439;50.106;10.996;2023-09-12T00:57:37;98379.04;;;19.05;61.25
77381;BME280;66439;50.106;10.996;2023-09-12T00:59:40;98375.98;;;19.05;61.47
77381;BME280;66439;50.106;10.996;2023-09-12T01:01:43;98376.56;;;19.05;61.42
77381;BME280;66439;50.106;10.996;2023-09-12T01:03:46;98376.36;;;19.02;61.45
77381;BME280;66439;50.106;10.996;2023-09-12T01:05:50;98380.17;;;18.95;61.76
77381;BME280;66439;50.106;10.996;2023-09-12T01:07:54;98385.48;;;18.86;61.77
77381;BME280;66439;50.106;10.996;2023-09-12T01:09:57;98385.71;;;18.81;61.99
77381;BME280;66439;50.106;10.996;2023-09-12T01:12:01;98388.23;;;18.79;62.12
77381;BME280;66439;50.106;10.996;2023-09-12T01:14:06;98385.39;;;18.80;62.27
77381;BME280;66439;50.106;10.996;2023-09-12T01:16:09;98383.42;;;18.82;62.08
77381;BME280;66439;50.106;10.996;2023-09-12T01:18:12;98380.59;;;18.83;62.00
77381;BME280;66439;50.106;10.996;2023-09-12T01:20:19;98379.15;;;18.81;62.15
77381;BME280;66439;50.106;10.996;2023-09-12T01:22:46;98383.32;;;18.76;62.19
77381;BME280;66439;50.106;10.996;2023-09-12T01:25:00;98384.86;;;18.72;62.40
77381;BME280;66439;50.106;10.996;2023-09-12T01:27:26;98389.89;;;18.68;62.51
77381;BME280;66439;50.106;10.996;2023-09-12T01:29:30;98389.00;;;18.64;62.71
77381;BME280;66439;50.106;10.996;2023-09-12T01:31:34;98387.73;;;18.62;62.70
77381;BME280;66439;50.106;10.996;2023-09-12T01:33:40;98386.69;;;18.64;62.74
77381;BME280;66439;50.106;10.996;2023-09-12T01:35:43;98386.11;;;18.65;62.70
77381;BME280;66439;50.106;10.996;2023-09-12T01:37:46;98385.39;;;18.61;62.74
77381;BME280;66439;50.106;10.996;2023-09-12T01:39:49;98391.17;;;18.55;63.01
77381;BME280;66439;50.106;10.996;2023-09-12T01:41:53;98387.20;;;18.47;63.22
77381;BME280;66439;50.106;10.996;2023-09-12T01:43:59;98384.44;;;18.40;63.24
77381;BME280;66439;50.106;10.996;2023-09-12T01:46:02;98380.55;;;18.39;63.32
77381;BME280;66439;50.106;10.996;2023-09-12T01:48:06;98380.70;;;18.36;63.18
77381;BME280;66439;50.106;10.996;2023-09-12T01:50:10;98378.67;;;18.31;63.33
77381;BME280;66439;50.106;10.996;2023-09-12T01:52:16;98379.88;;;18.25;63.45
77381;BME280;66439;50.106;10.996;2023-09-12T01:54:20;98375.08;;;18.19;63.61
77381;BME280;66439;50.106;10.996;2023-09-12T01:56:25;98377.79;;;18.15;64.05
77381;BME280;66439;50.106;10.996;2023-09-12T01:58:28;98376.95;;;18.11;64.02
77381;BME280;66439;50.106;10.996;2023-09-12T02:00:33;98372.88;;;18.08;64.24
77381;BME280;66439;50.106;10.996;2023-09-12T02:02:36;98377.77;;;18.11;64.15
77381;BME280;66439;50.106;10.996;2023-09-12T02:04:42;98374.89;;;18.15;64.18
77381;BME280;66439;50.106;10.996;2023-09-12T02:06:50;98374.56;;;18.18;64.28
77381;BME280;66439;50.106;10.996;2023-09-12T02:08:53;98372.23;;;18.20;64.47
77381;BME280;66439;50.106;10.996;2023-09-12T02:10:56;98372.02;;;18.23;64.33
77381;BME280;66439;50.106;10.996;2023-09-12T02:12:59;98373.57;;;18.25;64.28
77381;BME280;66439;50.106;10.996;2023-09-12T02:15:02;98375.92;;;18.28;64.05
77381;BME280;66439;50.106;10.996;2023-09-12T02:17:06;98379.11;;;18.25;64.00
77381;BME280;66439;50.106;10.996;2023-09-12T02:19:09;98373.70;;;18.23;64.05
77381;BME280;66439;50.106;10.996;2023-09-12T02:21:12;98372.52;;;18.23;63.98
77381;BME280;66439;50.106;10.996;2023-09-12T02:23:14;98371.28;;;18.24;63.81
77381;BME280;66439;50.106;10.996;2023-09-12T02:25:17;98367.98;;;18.23;63.70
77381;BME280;66439;50.106;10.996;2023-09-12T02:27:23;98371.90;;;18.22;64.03
77381;BME280;66439;50.106;10.996;2023-09-12T02:29:28;98371.33;;;18.21;63.84
77381;BME280;66439;50.106;10.996;2023-09-12T02:31:31;98374.00;;;18.19;63.80
77381;BME280;66439;50.106;10.996;2023-09-12T02:33:34;98373.57;;;18.16;63.73
77381;BME280;66439;50.106;10.996;2023-09-12T02:35:37;98371.75;;;18.15;63.91
77381;BME280;66439;50.106;10.996;2023-09-12T02:37:40;98371.67;;;18.13;63.80
77381;BME280;66439;50.106;10.996;2023-09-12T02:39:43;98369.33;;;18.11;63.73
77381;BME280;66439;50.106;10.996;2023-09-12T02:41:46;98366.17;;;18.13;63.78
77381;BME280;66439;50.106;10.996;2023-09-12T02:43:49;98365.52;;;18.09;63.91
77381;BME280;66439;50.106;10.996;2023-09-12T02:45:54;98365.64;;;18.04;63.96
77381;BME280;66439;50.106;10.996;2023-09-12T02:47:57;98365.53;;;17.98;64.12
77381;BME280;66439;50.106;10.996;2023-09-12T02:50:00;98367.90;;;17.96;64.17
77381;BME280;66439;50.106;10.996;2023-09-12T02:52:03;98361.21;;;17.92;64.37
77381;BME280;66439;50.106;10.996;2023-09-12T02:54:06;98363.30;;;17.87;64.44
77381;BME280;66439;50.106;10.996;2023-09-12T02:56:09;98365.28;;;17.81;64.41
77381;BME280;66439;50.106;10.996;2023-09-12T02:58:12;98371.27;;;17.77;64.63
77381;BME280;66439;50.106;10.996;2023-09-12T03:00:14;98371.18;;;17.75;64.61
77381;BME280;66439;50.106;10.996;2023-09-12T03:02:17;98369.52;;;17.73;64.74
77381;BME280;66439;50.106;10.996;2023-09-12T03:04:20;98370.05;;;17.73;64.83
77381;BME280;66439;50.106;10.996;2023-09-12T03:06:23;98371.86;;;17.74;64.72
77381;BME280;66439;50.106;10.996;2023-09-12T03:08:26;98371.41;;;17.73;64.59
77381;BME280;66439;50.106;10.996;2023-09-12T03:10:29;98370.95;;;17.72;64.74
77381;BME280;66439;50.106;10.996;2023-09-12T03:12:35;98369.63;;;17.71;65.00
77381;BME280;66439;50.106;10.996;2023-09-12T03:14:38;98369.23;;;17.70;64.85
77381;BME280;66439;50.106;10.996;2023-09-12T03:16:41;98367.34;;;17.72;64.85
77381;BME280;66439;50.106;10.996;2023-09-12T03:18:43;98368.30;;;17.74;64.61
77381;BME280;66439;50.106;10.996;2023-09-12T03:20:47;98362.08;;;17.75;64.84
77381;BME280;66439;50.106;10.996;2023-09-12T03:22:50;98357.67;;;17.77;64.84
77381;BME280;66439;50.106;10.996;2023-09-12T03:24:52;98357.17;;;17.79;64.56
77381;BME280;66439;50.106;10.996;2023-09-12T03:26:55;98353.89;;;17.80;64.58
77381;BME280;66439;50.106;10.996;2023-09-12T03:28:58;98352.67;;;17.81;64.60
77381;BME280;66439;50.106;10.996;2023-09-12T03:31:06;98347.84;;;17.82;64.48
77381;BME280;66439;50.106;10.996;2023-09-12T03:33:11;98347.04;;;17.83;64.46
77381;BME280;66439;50.106;10.996;2023-09-12T03:35:15;98344.92;;;17.84;64.67
77381;BME280;66439;50.106;10.996;2023-09-12T03:37:18;98347.61;;;17.84;64.54
77381;BME280;66439;50.106;10.996;2023-09-12T03:39:21;98350.54;;;17.85;64.59
77381;BME280;66439;50.106;10.996;2023-09-12T03:41:24;98346.77;;;17.85;64.60
77381;BME280;66439;50.106;10.996;2023-09-12T03:43:28;98350.21;;;17.84;64.43
77381;BME280;66439;50.106;10.996;2023-09-12T03:45:31;98349.84;;;17.85;64.42
77381;BME280;66439;50.106;10.996;2023-09-12T03:47:34;98355.14;;;17.84;64.44
77381;BME280;66439;50.106;10.996;2023-09-12T03:49:37;98356.94;;;17.83;64.32
77381;BME280;66439;50.106;10.996;2023-09-12T03:51:40;98362.52;;;17.83;64.41
77381;BME280;66439;50.106;10.996;2023-09-12T03:53:43;98361.17;;;17.82;64.43
77381;BME280;66439;50.106;10.996;2023-09-12T03:55:45;98359.48;;;17.81;64.33
77381;BME280;66439;50.106;10.996;2023-09-12T03:57:48;98361.81;;;17.80;64.43
77381;BME280;66439;50.106;10.996;2023-09-12T03:59:51;98363.23;;;17.80;64.31
77381;BME280;66439;50.106;10.996;2023-09-12T04:01:55;98363.31;;;17.80;64.37
77381;BME280;66439;50.106;10.996;2023-09-12T04:04:00;98368.45;;;17.80;64.61
77381;BME280;66439;50.106;10.996;2023-09-12T04:06:06;98368.42;;;17.79;64.31
77381;BME280;66439;50.106;10.996;2023-09-12T04:08:09;98371.09;;;17.78;64.36
77381;BME280;66439;50.106;10.996;2023-09-12T04:10:12;98368.83;;;17.78;64.37
77381;BME280;66439;50.106;10.996;2023-09-12T04:12:15;98371.01;;;17.73;64.37
77381;BME280;66439;50.106;10.996;2023-09-12T04:14:18;98374.49;;;17.67;64.33
77381;BME280;66439;50.106;10.996;2023-09-12T04:16:20;98374.50;;;17.63;64.44
77381;BME280;66439;50.106;10.996;2023-09-12T04:18:23;98372.55;;;17.59;64.53
77381;BME280;66439;50.106;10.996;2023-09-12T04:20:26;98370.61;;;17.57;64.69
77381;BME280;66439;50.106;10.996;2023-09-12T04:22:29;98368.38;;;17.55;64.66
77381;BME280;66439;50.106;10.996;2023-09-12T04:24:32;98366.04;;;17.54;64.85
77381;BME280;66439;50.106;10.996;2023-09-12T04:26:35;98368.38;;;17.53;64.73
77381;BME280;66439;50.106;10.996;2023-09-12T04:28:38;98367.17;;;17.51;64.81
77381;BME280;66439;50.106;10.996;2023-09-12T04:30:41;98368.27;;;17.49;64.65
77381;BME280;66439;50.106;10.996;2023-09-12T04:32:48;98363.41;;;17.49;64.72
77381;BME280;66439;50.106;10.996;2023-09-12T04:34:51;98363.27;;;17.45;64.64
77381;BME280;66439;50.106;10.996;2023-09-12T04:36:55;98361.14;;;17.41;64.83
77381;BME280;66439;50.106;10.996;2023-09-12T04:38:58;98362.56;;;17.37;64.88
77381;BME280;66439;50.106;10.996;2023-09-12T04:41:02;98362.00;;;17.33;64.97
77381;BME280;66439;50.106;10.996;2023-09-12T04:43:07;98366.77;;;17.30;65.10
77381;BME280;66439;50.106;10.996;2023-09-12T04:45:10;98366.88;;;17.27;65.20
77381;BME280;66439;50.106;10.996;2023-09-12T04:47:14;98370.79;;;17.25;65.02
77381;BME280;66439;50.106;10.996;2023-09-12T04:49:19;98371.58;;;17.22;65.24
77381;BME280;66439;50.106;10.996;2023-09-12T04:51:24;98370.30;;;17.19;64.90
77381;BME280;66439;50.106;10.996;2023-09-12T04:53:29;98370.11;;;17.17;65.25
77381;BME280;66439;50.106;10.996;2023-09-12T04:55:40;98372.11;;;17.12;65.27
77381;BME280;66439;50.106;10.996;2023-09-12T04:57:44;98371.27;;;17.08;65.34
77381;BME280;66439;50.106;10.996;2023-09-12T04:59:47;98370.69;;;17.06;65.54
77381;BME280;66439;50.106;10.996;2023-09-12T05:01:50;98373.89;;;17.04;65.53
77381;BME280;66439;50.106;10.996;2023-09-12T05:03:53;98376.66;;;17.02;65.72
77381;BME280;66439;50.106;10.996;2023-09-12T05:05:56;98378.47;;;17.01;65.81
77381;BME280;66439;50.106;10.996;2023-09-12T05:08:01;98379.66;;;17.00;65.57
77381;BME280;66439;50.106;10.996;2023-09-12T05:10:04;98382.11;;;16.99;65.70
77381;BME280;66439;50.106;10.996;2023-09-12T05:12:07;98383.27;;;16.97;65.57
77381;BME280;66439;50.106;10.996;2023-09-12T05:14:10;98384.47;;;16.99;65.85
77381;BME280;66439;50.106;10.996;2023-09-12T05:16:14;98382.38;;;17.01;65.66
77381;BME280;66439;50.106;10.996;2023-09-12T05:18:17;98389.14;;;17.03;65.77
77381;BME280;66439;50.106;10.996;2023-09-12T05:20:21;98386.67;;;17.05;65.72
77381;BME280;66439;50.106;10.996;2023-09-12T05:22:25;98389.73;;;17.08;65.55
77381;BME280;66439;50.106;10.996;2023-09-12T05:24:28;98390.09;;;17.07;65.66
77381;BME280;66439;50.106;10.996;2023-09-12T05:26:31;98391.43;;;17.07;65.88
77381;BME280;66439;50.106;10.996;2023-09-12T05:28:34;98394.20;;;17.08;65.85
77381;BME280;66439;50.106;10.996;2023-09-12T05:30:37;98396.02;;;17.08;66.03
77381;BME280;66439;50.106;10.996;2023-09-12T05:32:41;98396.36;;;17.07;66.08
77381;BME280;66439;50.106;10.996;2023-09-12T05:34:44;98398.70;;;17.06;66.26
77381;BME280;66439;50.106;10.996;2023-09-12T05:36:48;98393.79;;;17.05;66.46
77381;BME280;66439;50.106;10.996;2023-09-12T05:38:51;98390.46;;;17.07;66.51
77381;BME280;66439;50.106;10.996;2023-09-12T05:40:55;98386.58;;;17.09;66.42
77381;BME280;66439;50.106;10.996;2023-09-12T05:42:59;98384.32;;;17.11;66.53
77381;BME280;66439;50.106;10.996;2023-09-12T05:45:02;98386.72;;;17.10;66.53
77381;BME280;66439;50.106;10.996;2023-09-12T05:47:07;98390.45;;;17.14;66.50
77381;BME280;66439;50.106;10.996;2023-09-12T05:49:09;98387.16;;;17.20;66.49
77381;BME280;66439;50.106;10.996;2023-09-12T05:51:13;98388.70;;;17.24;66.50
77381;BME280;66439;50.106;10.996;2023-09-12T05:53:15;98388.25;;;17.30;66.56
77381;BME280;66439;50.106;10.996;2023-09-12T05:55:19;98384.63;;;17.34;66.34
77381;BME280;66439;50.106;10.996;2023-09-12T05:57:23;98383.88;;;17.36;66.24
77381;BME280;66439;50.106;10.996;2023-09-12T05:59:28;98380.07;;;17.38;66.44
77381;BME280;66439;50.106;10.996;2023-09-12T06:01:31;98380.76;;;17.41;66.41
77381;BME280;66439;50.106;10.996;2023-09-12T06:03:34;98380.01;;;17.41;66.39
77381;BME280;66439;50.106;10.996;2023-09-12T06:05:38;98382.63;;;17.40;66.26
77381;BME280;66439;50.106;10.996;2023-09-12T06:07:41;98384.59;;;17.39;66.43
77381;BME280;66439;50.106;10.996;2023-09-12T06:09:45;98387.46;;;17.36;66.42
77381;BME280;66439;50.106;10.996;2023-09-12T06:11:47;98384.17;;;17.30;66.61
77381;BME280;66439;50.106;10.996;2023-09-12T06:13:50;98381.38;;;17.30;66.77
77381;BME280;66439;50.106;10.996;2023-09-12T06:15:53;98381.84;;;17.34;66.68
77381;BME280;66439;50.106;10.996;2023-09-12T06:17:56;98384.71;;;17.39;66.58
77381;BME280;66439;50.106;10.996;2023-09-12T06:20:01;98385.02;;;17.42;66.73
77381;BME280;66439;50.106;10.996;2023-09-12T06:22:06;98385.83;;;17.44;66.59
77381;BME280;66439;50.106;10.996;2023-09-12T06:26:14;98387.35;;;17.58;66.89
77381;BME280;66439;50.106;10.996;2023-09-12T06:28:30;98389.49;;;17.65;66.73
77381;BME280;66439;50.106;10.996;2023-09-12T06:30:35;98388.29;;;17.69;66.42
77381;BME280;66439;50.106;10.996;2023-09-12T06:32:39;98389.49;;;17.67;66.48
77381;BME280;66439;50.106;10.996;2023-09-12T06:34:42;98389.36;;;17.69;66.43
77381;BME280;66439;50.106;10.996;2023-09-12T06:36:45;98391.19;;;17.71;66.38
77381;BME280;66439;50.106;10.996;2023-09-12T06:38:48;98387.80;;;17.71;66.55
77381;BME280;66439;50.106;10.996;2023-09-12T06:40:52;98388.39;;;17.73;66.62
77381;BME280;66439;50.106;10.996;2023-09-12T06:42:55;98393.79;;;17.76;66.56
77381;BME280;66439;50.106;10.996;2023-09-12T06:44:58;98396.64;;;17.81;66.56
77381;BME280;66439;50.106;10.996;2023-09-12T06:47:04;98403.62;;;17.86;66.50
77381;BME280;66439;50.106;10.996;2023-09-12T06:49:07;98405.20;;;17.92;66.43
77381;BME280;66439;50.106;10.996;2023-09-12T06:51:11;98409.02;;;18.01;66.36
77381;BME280;66439;50.106;10.996;2023-09-12T06:53:18;98414.97;;;18.07;66.14
77381;BME280;66439;50.106;10.996;2023-09-12T06:55:22;98408.70;;;18.11;66.04
77381;BME280;66439;50.106;10.996;2023-09-12T06:57:26;98414.00;;;18.12;66.00
77381;BME280;66439;50.106;10.996;2023-09-12T06:59:29;98414.65;;;18.15;66.04
77381;BME280;66439;50.106;10.996;2023-09-12T07:01:31;98414.94;;;18.19;65.89
77381;BME280;66439;50.106;10.996;2023-09-12T07:03:35;98412.89;;;18.22;65.81
77381;BME280;66439;50.106;10.996;2023-09-12T07:05:38;98411.08;;;18.25;65.78
77381;BME280;66439;50.106;10.996;2023-09-12T07:07:42;98409.71;;;18.30;65.81
77381;BME280;66439;50.106;10.996;2023-09-12T07:09:46;98409.10;;;18.34;65.82
77381;BME280;66439;50.106;10.996;2023-09-12T07:11:49;98411.90;;;18.40;65.69
77381;BME280;66439;50.106;10.996;2023-09-12T07:13:51;98412.55;;;18.50;65.62
77381;BME280;66439;50.106;10.996;2023-09-12T07:15:56;98409.19;;;18.55;65.50
77381;BME280;66439;50.106;10.996;2023-09-12T07:17:59;98408.60;;;18.60;65.35
77381;BME280;66439;50.106;10.996;2023-09-12T07:20:02;98407.74;;;18.67;65.57
77381;BME280;66439;50.106;10.996;2023-09-12T07:22:07;98407.52;;;18.74;65.53
77381;BME280;66439;50.106;10.996;2023-09-12T07:24:10;98406.71;;;18.80;65.36
77381;BME280;66439;50.106;10.996;2023-09-12T07:26:13;98405.41;;;18.83;65.20
77381;BME280;66439;50.106;10.996;2023-09-12T07:28:17;98404.66;;;18.86;65.10
77381;BME280;66439;50.106;10.996;2023-09-12T07:30:21;98404.63;;;18.88;65.18
77381;BME280;66439;50.106;10.996;2023-09-12T07:32:24;98404.52;;;18.87;64.97
77381;BME280;66439;50.106;10.996;2023-09-12T07:34:27;98403.88;;;18.88;65.06
77381;BME280;66439;50.106;10.996;2023-09-12T07:36:29;98406.74;;;18.89;65.05
77381;BME280;66439;50.106;10.996;2023-09-12T07:38:33;98402.90;;;18.94;64.95
77381;BME280;66439;50.106;10.996;2023-09-12T07:40:38;98400.23;;;18.99;65.13
77381;BME280;66439;50.106;10.996;2023-09-12T07:42:41;98393.54;;;19.05;65.17
77381;BME280;66439;50.106;10.996;2023-09-12T07:44:44;98393.77;;;19.08;65.03
77381;BME280;66439;50.106;10.996;2023-09-12T07:46:47;98393.70;;;19.12;65.25
77381;BME280;66439;50.106;10.996;2023-09-12T07:48:50;98401.60;;;19.18;65.44
77381;BME280;66439;50.106;10.996;2023-09-12T07:50:52;98399.39;;;19.25;65.41
77381;BME280;66439;50.106;10.996;2023-09-12T07:52:55;98393.95;;;19.32;65.31
77381;BME280;66439;50.106;10.996;2023-09-12T07:55:00;98394.77;;;19.38;65.10
77381;BME280;66439;50.106;10.996;2023-09-12T07:57:03;98397.27;;;19.41;65.29
77381;BME280;66439;50.106;10.996;2023-09-12T07:59:06;98405.74;;;19.47;65.17
77381;BME280;66439;50.106;10.996;2023-09-12T08:01:09;98404.70;;;19.50;65.13
77381;BME280;66439;50.106;10.996;2023-09-12T08:03:13;98403.79;;;19.50;64.83
77381;BME280;66439;50.106;10.996;2023-09-12T08:05:18;98399.52;;;19.53;65.15
77381;BME280;66439;50.106;10.996;2023-09-12T08:07:22;98396.75;;;19.59;65.07
77381;BME280;66439;50.106;10.996;2023-09-12T08:09:52;98397.52;;;19.62;64.81
77381;BME280;66439;50.106;10.996;2023-09-12T08:11:56;98397.09;;;19.69;64.99
77381;BME280;66439;50.106;10.996;2023-09-12T08:13:59;98397.59;;;19.76;65.00
77381;BME280;66439;50.106;10.996;2023-09-12T08:16:02;98402.06;;;19.80;64.52
77381;BME280;66439;50.106;10.996;2023-09-12T08:18:06;98404.27;;;19.84;64.54
77381;BME280;66439;50.106;10.996;2023-09-12T08:20:09;98405.67;;;19.88;64.46
77381;BME280;66439;50.106;10.996;2023-09-12T08:22:15;98406.45;;;19.98;64.65
77381;BME280;66439;50.106;10.996;2023-09-12T08:24:18;98405.67;;;20.06;64.48
77381;BME280;66439;50.106;10.996;2023-09-12T08:26:21;98407.67;;;20.14;64.30
77381;BME280;66439;50.106;10.996;2023-09-12T08:28:23;98403.23;;;20.24;63.96
77381;BME280;66439;50.106;10.996;2023-09-12T08:30:26;98403.13;;;20.29;63.81
77381;BME280;66439;50.106;10.996;2023-09-12T08:32:33;98403.55;;;20.33;63.68
77381;BME280;66439;50.106;10.996;2023-09-12T08:34:36;98402.75;;;20.39;63.71
77381;BME280;66439;50.106;10.996;2023-09-12T08:36:39;98405.52;;;20.46;63.51
77381;BME280;66439;50.106;10.996;2023-09-12T08:38:42;98406.00;;;20.53;63.38
77381;BME280;66439;50.106;10.996;2023-09-12T08:40:49;98406.72;;;20.60;63.22
77381;BME280;66439;50.106;10.996;2023-09-12T08:42:53;98402.58;;;20.67;63.34
77381;BME280;66439;50.106;10.996;2023-09-12T08:44:56;98401.34;;;20.75;63.17
77381;BME280;66439;50.106;10.996;2023-09-12T08:46:59;98398.38;;;20.81;63.27
77381;BME280;66439;50.106;10.996;2023-09-12T08:49:04;98395.70;;;20.90;63.36
77381;BME280;66439;50.106;10.996;2023-09-12T08:51:08;98394.63;;;20.97;63.31
77381;BME280;66439;50.106;10.996;2023-09-12T08:53:12;98389.38;;;21.04;62.99
77381;BME280;66439;50.106;10.996;2023-09-12T08:55:17;98392.55;;;21.08;62.91
77381;BME280;66439;50.106;10.996;2023-09-12T08:57:20;98386.11;;;21.10;63.11
77381;BME280;66439;50.106;10.996;2023-09-12T08:59:23;98386.92;;;21.16;63.16
77381;BME280;66439;50.106;10.996;2023-09-12T09:01:31;98387.14;;;21.26;62.70
77381;BME280;66439;50.106;10.996;2023-09-12T09:03:36;98392.02;;;21.32;62.47
77381;BME280;66439;50.106;10.996;2023-09-12T09:05:42;98389.79;;;21.39;62.65
77381;BME280;66439;50.106;10.996;2023-09-12T09:07:47;98390.98;;;21.47;62.72
77381;BME280;66439;50.106;10.996;2023-09-12T09:09:50;98390.98;;;21.54;62.42
77381;BME280;66439;50.106;10.996;2023-09-12T09:11:56;98386.79;;;21.60;62.29
77381;BME280;66439;50.106;10.996;2023-09-12T09:14:04;98383.21;;;21.68;62.30
77381;BME280;66439;50.106;10.996;2023-09-12T09:16:15;98381.23;;;21.71;62.13
77381;BME280;66439;50.106;10.996;2023-09-12T09:18:18;98379.77;;;21.76;61.99
77381;BME280;66439;50.106;10.996;2023-09-12T09:20:23;98375.36;;;21.80;62.22
77381;BME280;66439;50.106;10.996;2023-09-12T09:22:27;98374.30;;;21.86;61.94
77381;BME280;66439;50.106;10.996;2023-09-12T09:24:31;98377.02;;;21.91;62.19
77381;BME280;66439;50.106;10.996;2023-09-12T09:26:43;98375.36;;;21.95;61.84
77381;BME280;66439;50.106;10.996;2023-09-12T09:29:02;98375.48;;;22.01;61.82
77381;BME280;66439;50.106;10.996;2023-09-12T09:31:10;98371.41;;;22.11;61.52
77381;BME280;66439;50.106;10.996;2023-09-12T09:33:14;98371.69;;;22.21;61.14
77381;BME280;66439;50.106;10.996;2023-09-12T09:35:17;98372.80;;;22.28;60.89
77381;BME280;66439;50.106;10.996;2023-09-12T09:37:20;98368.14;;;22.34;60.53
77381;BME280;66439;50.106;10.996;2023-09-12T09:39:24;98371.56;;;22.41;60.52
77381;BME280;66439;50.106;10.996;2023-09-12T09:41:28;98369.41;;;22.47;60.26
77381;BME280;66439;50.106;10.996;2023-09-12T09:43:31;98373.27;;;22.56;60.36
77381;BME280;66439;50.106;10.996;2023-09-12T09:45:45;98372.58;;;22.65;60.18
77381;BME280;66439;50.106;10.996;2023-09-12T09:47:50;98369.70;;;22.72;59.41
77381;BME280;66439;50.106;10.996;2023-09-12T09:49:57;98366.45;;;22.77;59.32
77381;BME280;66439;50.106;10.996;2023-09-12T09:52:05;98369.98;;;22.82;59.06
77381;BME280;66439;50.106;10.996;2023-09-12T09:54:08;98365.76;;;22.82;58.98
77381;BME280;66439;50.106;10.996;2023-09-12T09:56:14;98363.74;;;22.84;58.84
77381;BME280;66439;50.106;10.996;2023-09-12T09:58:17;98360.77;;;22.85;58.74
77381;BME280;66439;50.106;10.996;2023-09-12T10:00:22;98362.45;;;22.88;59.03
77381;BME280;66439;50.106;10.996;2023-09-12T10:02:28;98360.22;;;22.89;59.35
77381;BME280;66439;50.106;10.996;2023-09-12T10:04:32;98361.32;;;22.91;59.19
77381;BME280;66439;50.106;10.996;2023-09-12T10:06:48;98361.77;;;22.97;59.43
77381;BME280;66439;50.106;10.996;2023-09-12T10:08:54;98360.67;;;23.04;59.83
77381;BME280;66439;50.106;10.996;2023-09-12T10:10:57;98358.81;;;23.15;59.39
77381;BME280;66439;50.106;10.996;2023-09-12T10:13:03;98360.64;;;23.25;59.15
77381;BME280;66439;50.106;10.996;2023-09-12T10:15:07;98359.00;;;23.36;58.27
77381;BME280;66439;50.106;10.996;2023-09-12T10:17:12;98356.10;;;23.45;58.11
77381;BME280;66439;50.106;10.996;2023-09-12T10:19:20;98350.16;;;23.54;57.54
77381;BME280;66439;50.106;10.996;2023-09-12T10:21:29;98342.86;;;23.62;57.53
77381;BME280;66439;50.106;10.996;2023-09-12T10:23:44;98340.14;;;23.70;57.33
77381;BME280;66439;50.106;10.996;2023-09-12T10:25:49;98337.35;;;23.79;57.75
77381;BME280;66439;50.106;10.996;2023-09-12T10:27:54;98337.56;;;23.88;57.93
77381;BME280;66439;50.106;10.996;2023-09-12T10:29:57;98335.64;;;23.95;58.08
77381;BME280;66439;50.106;10.996;2023-09-12T10:32:02;98335.66;;;24.02;58.19
77381;BME280;66439;50.106;10.996;2023-09-12T10:34:06;98337.13;;;24.09;58.24
77381;BME280;66439;50.106;10.996;2023-09-12T10:36:12;98329.97;;;24.17;57.82
77381;BME280;66439;50.106;10.996;2023-09-12T10:38:18;98331.40;;;24.24;57.46
77381;BME280;66439;50.106;10.996;2023-09-12T10:40:26;98332.60;;;24.31;57.00
77381;BME280;66439;50.106;10.996;2023-09-12T10:42:32;98332.70;;;24.33;55.95
77381;BME280;66439;50.106;10.996;2023-09-12T10:44:36;98341.15;;;24.36;56.07
77381;BME280;66439;50.106;10.996;2023-09-12T10:46:41;98340.60;;;24.38;55.67
77381;BME280;66439;50.106;10.996;2023-09-12T10:48:44;98339.13;;;24.42;55.60
77381;BME280;66439;50.106;10.996;2023-09-12T10:50:48;98337.24;;;24.48;55.63
77381;BME280;66439;50.106;10.996;2023-09-12T10:52:51;98330.32;;;24.52;55.35